Etusivu
METAR-TAF:

METAR-TAF

Lentoasemat :

Tambacounda, Senegal

Leveyspiiri: 13-46N, Pituuspiiri: 013-41W, korkeus merenpinnasta: 49 m

Tämänhetkinen sää

Tämä raportti tehtiin 58 minuuttia sitten, kello 19.00 UTC
Tuuli 8 kn etelästä
Lämpötila 34°C
Kosteus 63%
Ilmanpaine 1011 hPa
Näkyvyys 10 km tai enemmän
Muutamia pilviä 1300 ft:n korkeudessa

METAR: GOTT 221900Z 19008KT 9999 FEW013 34/26 Q1011

Aika: 19:58 (19:58 UTC)


TAF: puuttuu

Säähavainnot ja -ennusteet yli 4000 lentoasemalta (METAR- ja TAF-raportit).

Käytössä olevat sääasemat on merkitty karttaan keltaisilla ja punaisilla pisteillä.

Aseta hiiri pisteen päälle nähdäksesi sääaseman nimen.

Klikkaa sitten nähdäksesi säähavainnot ja -ennusteet.

Kartan vaihtaminen: klikkaa mustalla rastilla varustettuja vihreitä pisteitä, niin voit zoomata sisään; viivalla varustettua vihreää pistettä, niin voit zoomata ulos tai vihreitä nuolia, niin pääset viereisille kartoille.


METAR-TAF: